TimeCDT,TemperatureF,Dew PointF,Humidity,Sea Level PressureIn,VisibilityMPH,Wind Direction,Wind SpeedMPH,Gust SpeedMPH,PrecipitationIn,Events,Conditions,WindDirDegrees,DateUTC
12:15 AM,39.2,23.0,52,30.30,10.0,NNW,6.9,-,N/A,,Clear,340,2012-10-12 05:15:00
12:35 AM,37.4,23.0,56,30.31,10.0,NNW,6.9,-,N/A,,Clear,340,2012-10-12 05:35:00
1:15 AM,35.6,23.0,60,30.32,10.0,NNW,3.5,-,N/A,,Clear,340,2012-10-12 06:15:00
1:35 AM,35.6,23.0,60,30.33,10.0,Calm,Calm,-,N/A,,Clear,0,2012-10-12 06:35:00
1:55 AM,35.6,23.0,60,30.34,10.0,Calm,Calm,-,N/A,,Clear,0,2012-10-12 06:55:00
2:15 AM,35.6,23.0,60,30.35,10.0,Calm,Calm,-,N/A,,Clear,0,2012-10-12 07:15:00
2:35 AM,33.8,23.0,65,30.35,10.0,Calm,Calm,-,N/A,,Clear,0,2012-10-12 07:35:00
2:55 AM,33.8,23.0,65,30.35,10.0,Calm,Calm,-,N/A,,Clear,0,2012-10-12 07:55:00
3:15 AM,32.0,24.8,75,30.35,10.0,WNW,3.5,-,N/A,,Clear,300,2012-10-12 08:15:00
3:35 AM,32.0,24.8,75,30.36,10.0,WNW,3.5,-,N/A,,Clear,290,2012-10-12 08:35:00
3:55 AM,32.0,26.6,80,30.36,10.0,WNW,3.5,-,N/A,,Clear,300,2012-10-12 08:55:00
4:15 AM,30.2,26.6,86,30.37,10.0,Calm,Calm,-,N/A,,Clear,0,2012-10-12 09:15:00
4:35 AM,30.2,26.6,86,30.38,10.0,Calm,Calm,-,N/A,,Clear,0,2012-10-12 09:35:00
4:55 AM,28.4,24.8,86,30.38,10.0,Calm,Calm,-,N/A,,Clear,0,2012-10-12 09:55:00
5:15 AM,30.2,26.6,86,30.39,10.0,Calm,Calm,-,N/A,,Clear,0,2012-10-12 10:15:00
5:35 AM,28.4,26.6,93,30.40,10.0,Calm,Calm,-,N/A,,Clear,0,2012-10-12 10:35:00
5:55 AM,28.4,26.6,93,30.40,10.0,Calm,Calm,-,N/A,,Clear,0,2012-10-12 10:55:00
6:15 AM,26.6,26.6,100,30.41,10.0,Calm,Calm,-,N/A,,Clear,0,2012-10-12 11:15:00
6:35 AM,26.6,23.0,86,30.41,10.0,West,3.5,-,N/A,,Clear,280,2012-10-12 11:35:00
6:55 AM,28.4,24.8,86,30.41,10.0,Calm,Calm,-,N/A,,Clear,0,2012-10-12 11:55:00
7:15 AM,28.4,26.6,93,30.42,10.0,Calm,Calm,-,N/A,,Clear,0,2012-10-12 12:15:00
7:35 AM,28.4,24.8,86,30.42,10.0,Calm,Calm,-,N/A,,Clear,0,2012-10-12 12:35:00
7:55 AM,30.2,28.4,93,30.43,10.0,Calm,Calm,-,N/A,,Clear,0,2012-10-12 12:55:00
8:15 AM,32.0,28.4,87,30.43,10.0,Calm,Calm,-,N/A,,Clear,0,2012-10-12 13:15:00
8:55 AM,37.4,28.4,70,30.44,10.0,North,4.6,-,N/A,,Clear,10,2012-10-12 13:55:00
9:15 AM,39.2,28.4,65,30.45,10.0,NE,3.5,-,N/A,,Clear,50,2012-10-12 14:15:00
9:35 AM,41.0,26.6,57,30.46,10.0,NE,4.6,-,N/A,,Clear,40,2012-10-12 14:35:00
9:55 AM,42.8,21.2,42,30.46,10.0,NNE,6.9,-,N/A,,Clear,30,2012-10-12 14:55:00
11:15 AM,46.4,17.6,32,30.46,10.0,East,5.8,-,N/A,,Clear,90,2012-10-12 16:15:00
11:55 AM,48.2,19.4,32,30.45,10.0,East,3.5,-,N/A,,Clear,90,2012-10-12 16:55:00
12:15 PM,48.2,19.4,32,30.44,10.0,East,8.1,-,N/A,,Clear,100,2012-10-12 17:15:00
12:35 PM,48.2,19.4,32,30.44,10.0,NE,4.6,-,N/A,,Clear,50,2012-10-12 17:35:00
12:55 PM,50.0,19.4,30,30.42,10.0,South,4.6,-,N/A,,Clear,180,2012-10-12 17:55:00
1:55 PM,50.0,26.6,40,30.41,10.0,SSE,9.2,-,N/A,,Scattered Clouds,150,2012-10-12 18:55:00
2:35 PM,50.0,32.0,50,30.40,10.0,ESE,11.5,-,N/A,,Mostly Cloudy,120,2012-10-12 19:35:00
2:55 PM,50.0,32.0,50,30.39,10.0,ESE,9.2,16.1,N/A,,Scattered Clouds,120,2012-10-12 19:55:00
3:15 PM,50.0,32.0,50,30.38,10.0,SSE,10.4,-,N/A,,Scattered Clouds,160,2012-10-12 20:15:00
3:55 PM,50.0,32.0,50,30.37,10.0,SSE,10.4,-,N/A,,Scattered Clouds,160,2012-10-12 20:55:00
4:15 PM,46.4,32.0,57,30.37,10.0,ESE,9.2,-,N/A,,Scattered Clouds,110,2012-10-12 21:15:00
4:35 PM,48.2,32.0,54,30.36,10.0,SE,9.2,-,N/A,,Clear,130,2012-10-12 21:35:00
4:55 PM,46.4,33.8,62,30.35,10.0,SE,8.1,-,N/A,,Clear,140,2012-10-12 21:55:00
5:35 PM,46.4,33.8,62,30.35,10.0,ESE,6.9,-,N/A,,Clear,120,2012-10-12 22:35:00
6:15 PM,42.8,33.8,70,30.35,10.0,ESE,5.8,-,N/A,,Clear,120,2012-10-12 23:15:00
6:35 PM,42.8,33.8,70,30.34,10.0,ESE,5.8,-,N/A,,Clear,120,2012-10-12 23:35:00
6:55 PM,41.0,33.8,76,30.33,10.0,ESE,4.6,-,N/A,,Clear,110,2012-10-12 23:55:00
7:15 PM,41.0,33.8,76,30.32,10.0,ESE,3.5,-,N/A,,Clear,110,2012-10-13 00:15:00
7:55 PM,41.0,32.0,70,30.32,10.0,SSE,4.6,-,N/A,,Clear,150,2012-10-13 00:55:00
8:15 PM,41.0,32.0,70,30.32,10.0,SE,3.5,-,N/A,,Clear,140,2012-10-13 01:15:00
8:35 PM,41.0,32.0,70,30.32,10.0,SSE,3.5,-,N/A,,Clear,160,2012-10-13 01:35:00
8:55 PM,41.0,32.0,70,30.32,10.0,Calm,Calm,-,N/A,,Clear,0,2012-10-13 01:55:00
9:15 PM,39.2,32.0,75,30.30,10.0,SE,3.5,-,N/A,,Clear,140,2012-10-13 02:15:00
9:55 PM,39.2,32.0,75,30.28,10.0,SE,3.5,-,N/A,,Clear,140,2012-10-13 02:55:00
10:15 PM,39.2,32.0,75,30.28,10.0,SSE,3.5,-,N/A,,Clear,160,2012-10-13 03:15:00
11:35 PM,37.4,33.8,87,30.25,10.0,Calm,Calm,-,N/A,,Clear,0,2012-10-13 04:35:00
11:55 PM,37.4,33.8,87,30.24,10.0,Calm,Calm,-,N/A,,Clear,0,2012-10-13 04:55:00